Terminal Aerodrome Forecast
Issued by NWS

Current Version | Previous Version | Text Only | Print | Product List | Glossary On
Versions: 1 2 3 4 5 6 7 8 9 10 11 12 13 14
000
FTUS42 TJSJ 281100
TAFJMZ
TAF
TJMZ 281134Z 2812/2912 00000KT P6SM SKC
     FM281400 09005KT P6SM FEW030
     FM281800 28009KT P6SM VCSH FEW025 SCT040
     FM282300 07003KT P6SM FEW030 SCT060
      AMD NOT SKED TIL 281600=

USA.gov is the U.S. government's official web portal to all federal, state and local government web resources and services.